createdAt,value
2018-05-10T08:11:44.955Z,6.65
2018-05-10T08:14:12.097Z,6.40
2018-05-10T08:16:38.479Z,6.55
2018-05-10T08:19:04.896Z,6.53
2018-05-10T08:21:31.295Z,6.37
2018-05-10T08:23:57.702Z,6.10
2018-05-10T08:26:24.109Z,6.07
2018-05-10T08:28:50.501Z,6.32
2018-05-10T08:31:16.923Z,5.20
2018-05-10T08:33:43.297Z,5.60
2018-05-10T08:36:10.458Z,5.95
2018-05-10T08:38:36.852Z,6.30
2018-05-10T08:41:03.241Z,6.20
2018-05-10T08:43:29.643Z,5.30
2018-05-10T08:45:56.800Z,5.60
2018-05-10T08:48:23.913Z,5.87
2018-05-10T08:50:50.310Z,6.60
2018-05-10T08:53:16.783Z,6.60
2018-05-10T08:55:43.208Z,6.47
2018-05-10T08:58:09.676Z,5.50
2018-05-10T09:00:36.805Z,7.82
2018-05-10T09:03:03.262Z,6.90
2018-05-10T09:05:30.408Z,6.37
2018-05-10T09:07:57.534Z,6.80
2018-05-10T09:10:23.990Z,7.22
2018-05-10T09:12:50.405Z,8.83
2018-05-10T09:15:16.824Z,7.10
2018-05-10T09:17:43.213Z,5.53
2018-05-10T09:20:10.378Z,5.32
2018-05-10T09:22:36.830Z,6.90
2018-05-10T09:25:03.234Z,7.00
2018-05-10T09:27:30.447Z,6.80
2018-05-10T09:29:56.868Z,7.07
2018-05-10T09:32:23.271Z,7.30
2018-05-10T09:34:49.672Z,7.18
2018-05-10T09:37:16.116Z,7.60
2018-05-10T09:39:43.264Z,6.73
2018-05-10T09:44:36.690Z,6.23
2018-05-10T09:47:03.088Z,7.47
2018-05-10T09:49:30.264Z,8.38
2018-05-10T09:51:56.692Z,7.95
2018-05-10T09:54:23.081Z,8.10
2018-05-10T09:56:49.499Z,8.10
2018-05-10T09:59:15.918Z,7.53
2018-05-10T10:04:08.531Z,8.75
2018-05-10T10:06:35.673Z,6.03
2018-05-10T10:09:02.156Z,5.70
2018-05-10T10:11:28.604Z,8.20
2018-05-10T10:18:47.456Z,5.03
2018-05-10T10:21:14.579Z,5.23
2018-05-10T10:23:40.987Z,4.60
2018-05-10T10:26:07.409Z,5.13
2018-05-10T10:28:33.824Z,4.80
2018-05-10T10:31:00.241Z,5.43
2018-05-10T10:33:27.361Z,5.43
2018-05-10T10:35:53.759Z,5.47
2018-05-10T10:38:20.234Z,6.90
2018-05-10T10:57:50.228Z,4.83
2018-05-10T11:00:16.735Z,5.53
2018-05-10T11:02:43.135Z,5.23
2018-05-10T11:05:09.532Z,5.13
2018-05-10T11:07:35.914Z,5.40
2018-05-10T11:10:02.316Z,5.00
2018-05-10T11:12:28.703Z,5.00
2018-05-10T11:14:55.831Z,5.40
2018-05-10T11:17:22.476Z,5.50
2018-05-10T11:19:50.773Z,5.57
2018-05-10T11:22:20.043Z,5.13
2018-05-10T11:24:48.818Z,3.83
2018-05-10T11:27:15.247Z,10.40
2018-05-10T11:29:42.337Z,5.20
2018-05-10T11:32:08.748Z,5.07
2018-05-10T11:34:35.112Z,4.63
2018-05-10T11:37:01.554Z,4.33
2018-05-10T11:39:28.715Z,4.33
2018-05-10T11:41:55.872Z,4.07
2018-05-10T11:44:23.035Z,4.83
2018-05-10T11:46:50.162Z,4.60
2018-05-10T11:49:17.277Z,4.20
2018-05-10T11:51:43.672Z,5.10
2018-05-10T11:54:10.068Z,4.80
2018-05-10T11:56:41.285Z,5.07
2018-05-10T11:59:08.913Z,3.90
2018-05-10T12:01:35.455Z,4.37
2018-05-10T12:04:02.116Z,5.50
2018-05-10T12:06:33.701Z,5.53
2018-05-10T12:09:02.203Z,5.03
2018-05-10T12:11:30.559Z,5.80
2018-05-10T12:13:59.856Z,22.47
2018-05-10T12:16:28.766Z,14.93
2018-05-10T12:18:55.213Z,7.50
2018-05-10T12:21:22.350Z,5.43
2018-05-10T12:23:48.748Z,5.67
2018-05-10T12:26:15.141Z,5.60
2018-05-10T12:28:42.239Z,5.77
2018-05-10T12:31:08.633Z,5.63
2018-05-10T12:33:35.758Z,5.57
2018-05-10T12:36:02.204Z,4.90
2018-05-10T12:38:29.363Z,5.83
2018-05-10T12:40:56.512Z,6.20
2018-05-10T12:43:23.684Z,6.30
2018-05-10T12:45:50.145Z,5.35
2018-05-10T12:48:16.562Z,6.30
2018-05-10T12:53:09.148Z,5.50
2018-05-10T12:55:35.551Z,5.40
2018-05-10T12:58:01.974Z,5.20
2018-05-10T13:00:28.432Z,4.60
2018-05-10T13:02:54.823Z,5.60
2018-05-10T13:05:21.955Z,5.73
2018-05-10T13:07:48.328Z,4.07
2018-05-10T13:10:15.456Z,4.60
2018-05-10T13:12:41.821Z,4.67
2018-05-10T13:15:08.214Z,4.23
2018-05-10T13:17:34.600Z,4.77
2018-05-10T13:20:00.989Z,3.67
2018-05-10T13:22:28.130Z,4.83
2018-05-10T13:24:54.504Z,3.70
2018-05-10T13:27:20.966Z,4.20
2018-05-10T13:29:48.051Z,5.10
2018-05-10T13:32:14.420Z,3.80
2018-05-10T13:34:40.841Z,3.57
2018-05-10T13:37:07.229Z,4.10
2018-05-10T13:39:33.628Z,3.67
2018-05-10T13:41:59.993Z,3.50
2018-05-10T13:44:26.388Z,5.80
2018-05-10T13:46:53.517Z,4.53
2018-05-10T13:49:20.667Z,3.90
2018-05-10T13:51:47.041Z,3.23
2018-05-10T13:54:13.435Z,3.80
2018-05-10T13:56:39.836Z,3.33
2018-05-10T13:59:06.431Z,3.47
2018-05-10T14:01:32.765Z,5.37
2018-05-10T14:03:59.257Z,2.90
2018-05-10T14:06:25.778Z,3.10
2018-05-10T14:08:52.164Z,3.30
2018-05-10T14:11:19.295Z,2.83
2018-05-10T14:13:45.666Z,2.83
2018-05-10T14:16:12.072Z,3.10
2018-05-10T14:18:39.219Z,3.37
2018-05-10T14:21:06.399Z,5.72
2018-05-10T14:23:32.765Z,3.90
2018-05-10T14:25:59.144Z,4.80
2018-05-10T14:28:26.282Z,3.43
2018-05-10T14:30:52.667Z,3.17
2018-05-10T14:33:19.035Z,10.30
2018-05-10T14:35:45.400Z,2.80
2018-05-10T14:38:12.531Z,2.87
2018-05-10T14:40:38.893Z,2.13
2018-05-10T14:43:06.033Z,2.77
2018-05-10T14:47:59.393Z,2.83
2018-05-10T14:50:26.573Z,3.07
2018-05-10T14:52:53.785Z,2.90
2018-05-10T14:55:20.137Z,4.07
2018-05-10T14:57:46.503Z,3.10
2018-05-10T15:02:39.120Z,4.18
2018-05-10T15:05:06.263Z,2.70
2018-05-10T15:07:32.629Z,2.77
2018-05-10T15:09:59.768Z,3.03
2018-05-10T15:12:26.155Z,2.93
2018-05-10T15:14:52.611Z,2.60
2018-05-10T15:17:18.999Z,2.13
2018-05-10T15:19:46.161Z,2.40
2018-05-10T15:22:12.534Z,2.30
2018-05-10T15:24:38.933Z,3.03
2018-05-10T15:27:05.317Z,3.33
2018-05-10T15:29:31.720Z,2.87
2018-05-10T15:31:58.128Z,3.23
2018-05-10T15:34:24.515Z,2.10
2018-05-10T15:36:51.625Z,2.07
2018-05-10T15:39:18.035Z,2.13
2018-05-10T15:41:45.169Z,2.07
2018-05-10T15:44:12.303Z,1.90
2018-05-10T15:46:39.431Z,1.93
2018-05-10T15:49:05.824Z,2.20
2018-05-10T16:08:38.715Z,1.80
2018-05-10T16:11:05.092Z,1.83
2018-05-10T16:13:31.540Z,1.50
2018-05-10T16:15:58.185Z,2.03
2018-05-10T16:18:24.584Z,2.07
